Bronson, Texas
Current Conditions -  °F | °C
As of 8:55 PM on Sunday 21 Dec 2014 (Local Time) from KJAS Reporting Station
Haze Haze  
Wind Chill: 48°   Ceiling: 1100
Heat Index: 48°   Visibility: 5mi
Dew Point: 47°   Wind: 0mph
Humidity: 95%   Direction: NA
Pressure: 29.96"   Gusts: NA
Location:  31.34°N, 94.01°W
Report Text: KJAS 220255Z AUTO 00000KT 5SM BR BKN011 09/08 A2996 RMK AO2 T00910084
Loading
Personal Weather Stations






























Interactive Weather Map New forecast layout! Learn more

10-Day Weather Forecast

Advertisements
Track Severe Weather on mobile